Terminal Aerodrome Forecast
Issued by NWS

Home | Current Version | Previous Version | Text Only | Print | Product List | Glossary On
Versions: 1 2 3 4 5 6 7 8 9 10 11 12 13 14 15 16 17 18 19 20
000
FTUS42 KTBW 180900 AAA
TAFPGD
TAF AMD
KPGD 180909Z 1809/1906 VRB03KT 5SM BR FEW005 BKN250
      TEMPO 1809/1810 1SM BR SCT005
     FM181000 00000KT 3SM BR FEW003 BKN250
      TEMPO 1810/1813 1SM BR SCT003 BKN010
     FM181430 32007KT P6SM FEW035 BKN250
     FM190100 VRB03KT P6SM BKN250=

USA.gov is the U.S. government's official web portal to all federal, state and local government web resources and services.